sensor_id;sensor_type;location;lat;lon;timestamp;temperature;humidity
10282;DHT22;5186;59.472;18.048;2023-10-08T00:01:19;5.00;99.90
10282;DHT22;5186;59.472;18.048;2023-10-08T00:03:48;5.00;99.90
10282;DHT22;5186;59.472;18.048;2023-10-08T00:06:21;5.00;99.90
10282;DHT22;5186;59.472;18.048;2023-10-08T00:08:47;5.00;99.90
10282;DHT22;5186;59.472;18.048;2023-10-08T00:11:13;5.00;99.90
10282;DHT22;5186;59.472;18.048;2023-10-08T00:13:42;5.00;99.90
10282;DHT22;5186;59.472;18.048;2023-10-08T00:16:10;5.00;99.90
10282;DHT22;5186;59.472;18.048;2023-10-08T00:18:38;5.00;99.90
10282;DHT22;5186;59.472;18.048;2023-10-08T00:21:05;5.00;99.90
10282;DHT22;5186;59.472;18.048;2023-10-08T00:23:51;5.00;99.90
10282;DHT22;5186;59.472;18.048;2023-10-08T00:26:28;4.90;99.90
10282;DHT22;5186;59.472;18.048;2023-10-08T00:29:05;5.00;99.90
10282;DHT22;5186;59.472;18.048;2023-10-08T00:31:47;4.90;99.90
10282;DHT22;5186;59.472;18.048;2023-10-08T00:34:15;4.90;99.90
10282;DHT22;5186;59.472;18.048;2023-10-08T00:36:43;4.90;99.90
10282;DHT22;5186;59.472;18.048;2023-10-08T00:39:10;4.90;99.90
10282;DHT22;5186;59.472;18.048;2023-10-08T00:41:43;4.90;99.90
10282;DHT22;5186;59.472;18.048;2023-10-08T00:44:10;4.90;99.90
10282;DHT22;5186;59.472;18.048;2023-10-08T00:46:58;4.90;99.90
10282;DHT22;5186;59.472;18.048;2023-10-08T00:49:27;4.90;99.90
10282;DHT22;5186;59.472;18.048;2023-10-08T00:52:14;4.80;99.90
10282;DHT22;5186;59.472;18.048;2023-10-08T00:54:41;4.90;99.90
10282;DHT22;5186;59.472;18.048;2023-10-08T00:57:28;4.80;99.90
10282;DHT22;5186;59.472;18.048;2023-10-08T00:59:55;4.80;99.90
10282;DHT22;5186;59.472;18.048;2023-10-08T01:02:29;4.80;99.90
10282;DHT22;5186;59.472;18.048;2023-10-08T01:05:17;4.80;99.90
10282;DHT22;5186;59.472;18.048;2023-10-08T01:07:50;4.80;99.90
10282;DHT22;5186;59.472;18.048;2023-10-08T01:10:17;4.80;99.90
10282;DHT22;5186;59.472;18.048;2023-10-08T01:12:47;4.80;99.90
10282;DHT22;5186;59.472;18.048;2023-10-08T01:15:36;4.80;99.90
10282;DHT22;5186;59.472;18.048;2023-10-08T01:18:03;4.80;99.90
10282;DHT22;5186;59.472;18.048;2023-10-08T01:20:31;4.80;99.90
10282;DHT22;5186;59.472;18.048;2023-10-08T01:23:10;4.80;99.90
10282;DHT22;5186;59.472;18.048;2023-10-08T01:25:40;4.80;99.90
10282;DHT22;5186;59.472;18.048;2023-10-08T01:28:07;4.80;99.90
10282;DHT22;5186;59.472;18.048;2023-10-08T01:30:56;4.80;99.90
10282;DHT22;5186;59.472;18.048;2023-10-08T01:33:30;4.70;99.90
10282;DHT22;5186;59.472;18.048;2023-10-08T01:35:57;4.70;99.90
10282;DHT22;5186;59.472;18.048;2023-10-08T01:38:29;4.70;99.90
10282;DHT22;5186;59.472;18.048;2023-10-08T01:40:56;4.70;99.90
10282;DHT22;5186;59.472;18.048;2023-10-08T01:43:22;4.70;99.90
10282;DHT22;5186;59.472;18.048;2023-10-08T01:45:48;4.70;99.90
10282;DHT22;5186;59.472;18.048;2023-10-08T01:48:15;4.70;99.90
10282;DHT22;5186;59.472;18.048;2023-10-08T01:50:46;4.70;99.90
10282;DHT22;5186;59.472;18.048;2023-10-08T01:53:13;4.70;99.90
10282;DHT22;5186;59.472;18.048;2023-10-08T01:55:40;4.70;99.90
10282;DHT22;5186;59.472;18.048;2023-10-08T01:58:24;4.70;99.90
10282;DHT22;5186;59.472;18.048;2023-10-08T02:00:50;4.80;99.90
10282;DHT22;5186;59.472;18.048;2023-10-08T02:03:17;4.80;99.90
10282;DHT22;5186;59.472;18.048;2023-10-08T02:05:44;4.70;99.90
10282;DHT22;5186;59.472;18.048;2023-10-08T02:08:11;4.70;99.90
10282;DHT22;5186;59.472;18.048;2023-10-08T02:10:42;4.70;99.90
10282;DHT22;5186;59.472;18.048;2023-10-08T02:13:09;4.80;99.90
10282;DHT22;5186;59.472;18.048;2023-10-08T02:15:43;4.70;99.90
10282;DHT22;5186;59.472;18.048;2023-10-08T02:18:09;4.80;99.90
10282;DHT22;5186;59.472;18.048;2023-10-08T02:20:34;4.70;99.90
10282;DHT22;5186;59.472;18.048;2023-10-08T02:23:00;4.70;99.90
10282;DHT22;5186;59.472;18.048;2023-10-08T02:25:26;4.70;99.90
10282;DHT22;5186;59.472;18.048;2023-10-08T02:27:52;4.70;99.90
10282;DHT22;5186;59.472;18.048;2023-10-08T02:30:18;4.60;99.90
10282;DHT22;5186;59.472;18.048;2023-10-08T02:32:44;4.70;99.90
10282;DHT22;5186;59.472;18.048;2023-10-08T02:35:11;4.70;99.90
10282;DHT22;5186;59.472;18.048;2023-10-08T02:37:38;4.60;99.90
10282;DHT22;5186;59.472;18.048;2023-10-08T02:40:08;4.70;99.90
10282;DHT22;5186;59.472;18.048;2023-10-08T02:42:42;4.60;99.90
10282;DHT22;5186;59.472;18.048;2023-10-08T02:45:11;4.60;99.90
10282;DHT22;5186;59.472;18.048;2023-10-08T02:47:43;4.70;99.90
10282;DHT22;5186;59.472;18.048;2023-10-08T02:50:12;4.70;99.90
10282;DHT22;5186;59.472;18.048;2023-10-08T02:52:42;4.70;99.90
10282;DHT22;5186;59.472;18.048;2023-10-08T02:55:10;4.70;99.90
10282;DHT22;5186;59.472;18.048;2023-10-08T02:57:48;4.70;99.90
10282;DHT22;5186;59.472;18.048;2023-10-08T03:00:16;4.70;99.90
10282;DHT22;5186;59.472;18.048;2023-10-08T03:02:45;4.70;99.90
10282;DHT22;5186;59.472;18.048;2023-10-08T03:05:12;4.70;99.90
10282;DHT22;5186;59.472;18.048;2023-10-08T03:07:42;4.70;99.90
10282;DHT22;5186;59.472;18.048;2023-10-08T03:10:10;4.70;99.90
10282;DHT22;5186;59.472;18.048;2023-10-08T03:12:45;4.70;99.90
10282;DHT22;5186;59.472;18.048;2023-10-08T03:15:15;4.70;99.90
10282;DHT22;5186;59.472;18.048;2023-10-08T03:18:03;4.70;99.90
10282;DHT22;5186;59.472;18.048;2023-10-08T03:20:41;4.70;99.90
10282;DHT22;5186;59.472;18.048;2023-10-08T03:23:15;4.70;99.90
10282;DHT22;5186;59.472;18.048;2023-10-08T03:25:58;4.70;99.90
10282;DHT22;5186;59.472;18.048;2023-10-08T03:28:34;4.70;99.90
10282;DHT22;5186;59.472;18.048;2023-10-08T03:31:01;4.70;99.90
10282;DHT22;5186;59.472;18.048;2023-10-08T03:33:35;4.70;99.90
10282;DHT22;5186;59.472;18.048;2023-10-08T03:36:04;4.70;99.90
10282;DHT22;5186;59.472;18.048;2023-10-08T03:38:35;4.80;99.90
10282;DHT22;5186;59.472;18.048;2023-10-08T03:41:10;4.80;99.90
10282;DHT22;5186;59.472;18.048;2023-10-08T03:43:42;4.80;99.90
10282;DHT22;5186;59.472;18.048;2023-10-08T03:46:29;4.80;99.90
10282;DHT22;5186;59.472;18.048;2023-10-08T03:48:54;4.80;99.90
10282;DHT22;5186;59.472;18.048;2023-10-08T03:51:23;4.80;99.90
10282;DHT22;5186;59.472;18.048;2023-10-08T03:53:53;4.80;99.90
10282;DHT22;5186;59.472;18.048;2023-10-08T03:56:32;4.90;99.90
10282;DHT22;5186;59.472;18.048;2023-10-08T03:59:02;4.90;99.90
10282;DHT22;5186;59.472;18.048;2023-10-08T04:01:38;4.90;99.90
10282;DHT22;5186;59.472;18.048;2023-10-08T04:04:06;5.00;99.90
10282;DHT22;5186;59.472;18.048;2023-10-08T04:06:32;5.00;99.90
10282;DHT22;5186;59.472;18.048;2023-10-08T04:09:00;5.00;99.90
10282;DHT22;5186;59.472;18.048;2023-10-08T04:11:39;5.00;99.90
10282;DHT22;5186;59.472;18.048;2023-10-08T04:14:17;5.00;99.90
10282;DHT22;5186;59.472;18.048;2023-10-08T04:16:42;5.00;99.90
10282;DHT22;5186;59.472;18.048;2023-10-08T04:19:09;5.00;99.90
10282;DHT22;5186;59.472;18.048;2023-10-08T04:21:35;5.00;99.90
10282;DHT22;5186;59.472;18.048;2023-10-08T04:24:01;5.10;99.90
10282;DHT22;5186;59.472;18.048;2023-10-08T04:26:31;5.10;99.90
10282;DHT22;5186;59.472;18.048;2023-10-08T04:28:58;5.10;99.90
10282;DHT22;5186;59.472;18.048;2023-10-08T04:31:27;5.10;99.90
10282;DHT22;5186;59.472;18.048;2023-10-08T04:34:03;5.10;99.90
10282;DHT22;5186;59.472;18.048;2023-10-08T04:36:35;5.10;99.90
10282;DHT22;5186;59.472;18.048;2023-10-08T04:39:04;5.10;99.90
10282;DHT22;5186;59.472;18.048;2023-10-08T04:41:39;5.20;99.90
10282;DHT22;5186;59.472;18.048;2023-10-08T04:44:11;5.10;99.90
10282;DHT22;5186;59.472;18.048;2023-10-08T04:46:44;5.10;99.90
10282;DHT22;5186;59.472;18.048;2023-10-08T04:49:14;5.10;99.90
10282;DHT22;5186;59.472;18.048;2023-10-08T04:52:01;5.20;99.90
10282;DHT22;5186;59.472;18.048;2023-10-08T04:54:31;5.10;99.90
10282;DHT22;5186;59.472;18.048;2023-10-08T04:57:00;5.10;99.90
10282;DHT22;5186;59.472;18.048;2023-10-08T04:59:29;5.10;99.90
10282;DHT22;5186;59.472;18.048;2023-10-08T05:02:02;5.20;99.90
10282;DHT22;5186;59.472;18.048;2023-10-08T05:04:39;5.20;99.90
10282;DHT22;5186;59.472;18.048;2023-10-08T05:07:22;5.10;99.90
10282;DHT22;5186;59.472;18.048;2023-10-08T05:10:25;5.20;99.90
10282;DHT22;5186;59.472;18.048;2023-10-08T05:12:54;5.20;99.90
10282;DHT22;5186;59.472;18.048;2023-10-08T05:15:29;5.20;99.90
10282;DHT22;5186;59.472;18.048;2023-10-08T05:18:20;5.20;99.90
10282;DHT22;5186;59.472;18.048;2023-10-08T05:21:03;5.20;99.90
10282;DHT22;5186;59.472;18.048;2023-10-08T05:23:48;5.20;99.90
10282;DHT22;5186;59.472;18.048;2023-10-08T05:26:37;5.20;99.90
10282;DHT22;5186;59.472;18.048;2023-10-08T05:29:08;5.20;99.90
10282;DHT22;5186;59.472;18.048;2023-10-08T05:31:53;5.20;99.90
10282;DHT22;5186;59.472;18.048;2023-10-08T05:34:38;5.20;99.90
10282;DHT22;5186;59.472;18.048;2023-10-08T05:37:08;5.20;99.90
10282;DHT22;5186;59.472;18.048;2023-10-08T05:39:56;5.30;99.90
10282;DHT22;5186;59.472;18.048;2023-10-08T05:42:36;5.30;99.90
10282;DHT22;5186;59.472;18.048;2023-10-08T05:45:11;5.30;99.90
10282;DHT22;5186;59.472;18.048;2023-10-08T05:47:37;5.30;99.90
10282;DHT22;5186;59.472;18.048;2023-10-08T05:50:03;5.30;99.90
10282;DHT22;5186;59.472;18.048;2023-10-08T05:52:42;5.30;99.90
10282;DHT22;5186;59.472;18.048;2023-10-08T05:55:23;5.30;99.90
10282;DHT22;5186;59.472;18.048;2023-10-08T05:57:53;5.40;99.90
10282;DHT22;5186;59.472;18.048;2023-10-08T06:00:39;5.40;99.90
10282;DHT22;5186;59.472;18.048;2023-10-08T06:03:20;5.50;99.90
10282;DHT22;5186;59.472;18.048;2023-10-08T06:06:08;5.50;99.90
10282;DHT22;5186;59.472;18.048;2023-10-08T06:08:39;5.40;99.90
10282;DHT22;5186;59.472;18.048;2023-10-08T06:11:20;5.50;99.90
10282;DHT22;5186;59.472;18.048;2023-10-08T06:14:05;5.50;99.90
10282;DHT22;5186;59.472;18.048;2023-10-08T06:16:43;5.50;99.90
10282;DHT22;5186;59.472;18.048;2023-10-08T06:19:13;5.60;99.90
10282;DHT22;5186;59.472;18.048;2023-10-08T06:21:40;5.50;99.90
10282;DHT22;5186;59.472;18.048;2023-10-08T06:24:07;5.60;99.90
10282;DHT22;5186;59.472;18.048;2023-10-08T06:26:39;5.60;99.90
10282;DHT22;5186;59.472;18.048;2023-10-08T06:29:11;5.70;99.90
10282;DHT22;5186;59.472;18.048;2023-10-08T06:31:54;5.70;99.90
10282;DHT22;5186;59.472;18.048;2023-10-08T06:34:21;5.70;99.90
10282;DHT22;5186;59.472;18.048;2023-10-08T06:36:49;5.80;99.90
10282;DHT22;5186;59.472;18.048;2023-10-08T06:39:22;5.80;99.90
10282;DHT22;5186;59.472;18.048;2023-10-08T06:41:59;5.90;99.90
10282;DHT22;5186;59.472;18.048;2023-10-08T06:44:24;5.90;99.90
10282;DHT22;5186;59.472;18.048;2023-10-08T06:46:51;5.90;99.90
10282;DHT22;5186;59.472;18.048;2023-10-08T06:49:21;5.90;99.90
10282;DHT22;5186;59.472;18.048;2023-10-08T06:51:50;5.90;99.90
10282;DHT22;5186;59.472;18.048;2023-10-08T06:54:16;6.00;99.90
10282;DHT22;5186;59.472;18.048;2023-10-08T06:56:43;6.00;99.90
10282;DHT22;5186;59.472;18.048;2023-10-08T06:59:13;6.00;99.90
10282;DHT22;5186;59.472;18.048;2023-10-08T07:01:40;6.10;99.90
10282;DHT22;5186;59.472;18.048;2023-10-08T07:04:06;6.10;99.90
10282;DHT22;5186;59.472;18.048;2023-10-08T07:06:41;6.20;99.90
10282;DHT22;5186;59.472;18.048;2023-10-08T07:09:09;6.20;99.90
10282;DHT22;5186;59.472;18.048;2023-10-08T07:11:49;6.20;99.90
10282;DHT22;5186;59.472;18.048;2023-10-08T07:14:14;6.20;99.90
10282;DHT22;5186;59.472;18.048;2023-10-08T07:16:40;6.30;99.90
10282;DHT22;5186;59.472;18.048;2023-10-08T07:19:07;6.30;99.90
10282;DHT22;5186;59.472;18.048;2023-10-08T07:21:44;6.30;99.90
10282;DHT22;5186;59.472;18.048;2023-10-08T07:24:15;6.30;99.90
10282;DHT22;5186;59.472;18.048;2023-10-08T07:26:43;6.40;99.90
10282;DHT22;5186;59.472;18.048;2023-10-08T07:29:16;6.40;99.90
10282;DHT22;5186;59.472;18.048;2023-10-08T07:31:43;6.40;99.90
10282;DHT22;5186;59.472;18.048;2023-10-08T07:34:17;6.50;99.90
10282;DHT22;5186;59.472;18.048;2023-10-08T07:36:49;6.50;99.90
10282;DHT22;5186;59.472;18.048;2023-10-08T07:39:16;6.50;99.90
10282;DHT22;5186;59.472;18.048;2023-10-08T07:42:02;6.60;99.90
10282;DHT22;5186;59.472;18.048;2023-10-08T07:44:30;6.60;99.90
10282;DHT22;5186;59.472;18.048;2023-10-08T07:46:56;6.70;99.90
10282;DHT22;5186;59.472;18.048;2023-10-08T07:49:25;6.70;99.90
10282;DHT22;5186;59.472;18.048;2023-10-08T07:51:56;6.70;99.90
10282;DHT22;5186;59.472;18.048;2023-10-08T07:54:24;6.80;99.90
10282;DHT22;5186;59.472;18.048;2023-10-08T07:56:54;6.80;99.90
10282;DHT22;5186;59.472;18.048;2023-10-08T07:59:46;6.80;99.90
10282;DHT22;5186;59.472;18.048;2023-10-08T08:02:13;6.90;99.90
10282;DHT22;5186;59.472;18.048;2023-10-08T08:04:41;6.90;99.90
10282;DHT22;5186;59.472;18.048;2023-10-08T08:07:08;6.90;99.90
10282;DHT22;5186;59.472;18.048;2023-10-08T08:09:42;7.00;99.90
10282;DHT22;5186;59.472;18.048;2023-10-08T08:12:16;7.00;99.90
10282;DHT22;5186;59.472;18.048;2023-10-08T08:14:41;7.00;99.90
10282;DHT22;5186;59.472;18.048;2023-10-08T08:17:07;7.10;99.90
10282;DHT22;5186;59.472;18.048;2023-10-08T08:19:41;7.10;99.90
10282;DHT22;5186;59.472;18.048;2023-10-08T08:22:07;7.10;99.90
10282;DHT22;5186;59.472;18.048;2023-10-08T08:24:32;7.20;99.90
10282;DHT22;5186;59.472;18.048;2023-10-08T08:27:02;7.20;99.90
10282;DHT22;5186;59.472;18.048;2023-10-08T08:29:36;7.20;99.90
10282;DHT22;5186;59.472;18.048;2023-10-08T08:32:11;7.20;99.90
10282;DHT22;5186;59.472;18.048;2023-10-08T08:34:47;7.30;99.90
10282;DHT22;5186;59.472;18.048;2023-10-08T08:37:16;7.30;99.90
10282;DHT22;5186;59.472;18.048;2023-10-08T08:39:41;7.30;99.90
10282;DHT22;5186;59.472;18.048;2023-10-08T08:42:08;7.40;99.90
10282;DHT22;5186;59.472;18.048;2023-10-08T08:44:36;7.40;99.90
10282;DHT22;5186;59.472;18.048;2023-10-08T08:50:45;7.40;99.90
10282;DHT22;5186;59.472;18.048;2023-10-08T08:53:11;7.40;99.90
10282;DHT22;5186;59.472;18.048;2023-10-08T08:55:37;7.50;99.90
10282;DHT22;5186;59.472;18.048;2023-10-08T08:58:05;7.50;99.90
10282;DHT22;5186;59.472;18.048;2023-10-08T09:00:36;7.50;99.90
10282;DHT22;5186;59.472;18.048;2023-10-08T09:03:03;7.50;99.90
10282;DHT22;5186;59.472;18.048;2023-10-08T09:05:31;7.50;99.90
10282;DHT22;5186;59.472;18.048;2023-10-08T09:08:02;7.60;99.90
10282;DHT22;5186;59.472;18.048;2023-10-08T09:10:30;7.70;99.90
10282;DHT22;5186;59.472;18.048;2023-10-08T09:13:02;7.70;99.90
10282;DHT22;5186;59.472;18.048;2023-10-08T09:15:29;7.80;99.90
10282;DHT22;5186;59.472;18.048;2023-10-08T09:17:56;7.80;99.90
10282;DHT22;5186;59.472;18.048;2023-10-08T09:20:22;7.90;99.90
10282;DHT22;5186;59.472;18.048;2023-10-08T09:23:08;7.90;99.90
10282;DHT22;5186;59.472;18.048;2023-10-08T09:25:37;8.00;99.90
10282;DHT22;5186;59.472;18.048;2023-10-08T09:28:03;8.00;99.90
10282;DHT22;5186;59.472;18.048;2023-10-08T09:30:35;8.00;99.90
10282;DHT22;5186;59.472;18.048;2023-10-08T09:33:07;8.00;99.90
10282;DHT22;5186;59.472;18.048;2023-10-08T09:35:33;8.10;99.90
10282;DHT22;5186;59.472;18.048;2023-10-08T09:38:04;8.10;99.90
10282;DHT22;5186;59.472;18.048;2023-10-08T09:40:30;8.20;99.90
10282;DHT22;5186;59.472;18.048;2023-10-08T09:42:56;8.20;99.90
10282;DHT22;5186;59.472;18.048;2023-10-08T09:45:22;8.30;99.90
10282;DHT22;5186;59.472;18.048;2023-10-08T09:47:54;8.30;99.90
10282;DHT22;5186;59.472;18.048;2023-10-08T09:50:27;8.30;99.90
10282;DHT22;5186;59.472;18.048;2023-10-08T09:53:09;8.30;99.90
10282;DHT22;5186;59.472;18.048;2023-10-08T09:55:55;8.40;99.90
10282;DHT22;5186;59.472;18.048;2023-10-08T09:58:26;8.40;99.90
10282;DHT22;5186;59.472;18.048;2023-10-08T10:00:54;8.50;99.90
10282;DHT22;5186;59.472;18.048;2023-10-08T10:03:21;8.50;99.90
10282;DHT22;5186;59.472;18.048;2023-10-08T10:05:48;8.50;99.90
10282;DHT22;5186;59.472;18.048;2023-10-08T10:08:16;8.50;99.90
10282;DHT22;5186;59.472;18.048;2023-10-08T10:10:43;8.50;99.90
10282;DHT22;5186;59.472;18.048;2023-10-08T10:13:15;8.50;99.90
10282;DHT22;5186;59.472;18.048;2023-10-08T10:15:42;8.60;99.90
10282;DHT22;5186;59.472;18.048;2023-10-08T10:18:09;8.60;99.90
10282;DHT22;5186;59.472;18.048;2023-10-08T10:20:46;8.60;99.90
10282;DHT22;5186;59.472;18.048;2023-10-08T10:23:36;8.60;99.90
10282;DHT22;5186;59.472;18.048;2023-10-08T10:26:03;8.70;99.90
10282;DHT22;5186;59.472;18.048;2023-10-08T10:28:29;8.70;99.90
10282;DHT22;5186;59.472;18.048;2023-10-08T10:30:55;8.70;99.90
10282;DHT22;5186;59.472;18.048;2023-10-08T10:33:31;8.80;99.90
10282;DHT22;5186;59.472;18.048;2023-10-08T10:36:00;8.80;99.90
10282;DHT22;5186;59.472;18.048;2023-10-08T10:38:26;8.80;99.90
10282;DHT22;5186;59.472;18.048;2023-10-08T10:40:52;8.90;99.90
10282;DHT22;5186;59.472;18.048;2023-10-08T10:43:26;8.90;99.90
10282;DHT22;5186;59.472;18.048;2023-10-08T10:45:59;9.00;99.90
10282;DHT22;5186;59.472;18.048;2023-10-08T10:48:25;8.90;99.90
10282;DHT22;5186;59.472;18.048;2023-10-08T10:51:00;9.00;99.90
10282;DHT22;5186;59.472;18.048;2023-10-08T10:53:34;9.00;99.90
10282;DHT22;5186;59.472;18.048;2023-10-08T10:56:12;9.00;99.90
10282;DHT22;5186;59.472;18.048;2023-10-08T10:58:47;9.00;99.90
10282;DHT22;5186;59.472;18.048;2023-10-08T11:01:22;9.10;99.90
10282;DHT22;5186;59.472;18.048;2023-10-08T11:03:51;9.10;99.90
10282;DHT22;5186;59.472;18.048;2023-10-08T11:06:19;9.10;99.90
10282;DHT22;5186;59.472;18.048;2023-10-08T11:08:51;9.10;99.90
10282;DHT22;5186;59.472;18.048;2023-10-08T11:11:18;9.20;99.90
10282;DHT22;5186;59.472;18.048;2023-10-08T11:13:44;9.20;99.90
10282;DHT22;5186;59.472;18.048;2023-10-08T11:16:17;9.20;99.90
10282;DHT22;5186;59.472;18.048;2023-10-08T11:18:47;9.20;99.90
10282;DHT22;5186;59.472;18.048;2023-10-08T11:21:16;9.30;99.90
10282;DHT22;5186;59.472;18.048;2023-10-08T11:23:48;9.30;99.90
10282;DHT22;5186;59.472;18.048;2023-10-08T11:26:36;9.30;99.90
10282;DHT22;5186;59.472;18.048;2023-10-08T11:29:06;9.30;99.90
10282;DHT22;5186;59.472;18.048;2023-10-08T11:31:40;9.40;99.90
10282;DHT22;5186;59.472;18.048;2023-10-08T11:34:06;9.40;99.90
10282;DHT22;5186;59.472;18.048;2023-10-08T11:36:36;9.40;99.90
10282;DHT22;5186;59.472;18.048;2023-10-08T11:39:14;9.40;99.90
10282;DHT22;5186;59.472;18.048;2023-10-08T11:42:00;9.50;99.90
10282;DHT22;5186;59.472;18.048;2023-10-08T11:44:30;9.50;99.90
10282;DHT22;5186;59.472;18.048;2023-10-08T11:46:55;9.50;99.90
10282;DHT22;5186;59.472;18.048;2023-10-08T11:49:30;9.50;99.90
10282;DHT22;5186;59.472;18.048;2023-10-08T11:52:00;9.60;99.90
10282;DHT22;5186;59.472;18.048;2023-10-08T11:54:26;9.60;99.90
10282;DHT22;5186;59.472;18.048;2023-10-08T11:56:53;9.60;99.90
10282;DHT22;5186;59.472;18.048;2023-10-08T11:59:18;9.70;99.90
10282;DHT22;5186;59.472;18.048;2023-10-08T12:01:44;9.70;99.90
10282;DHT22;5186;59.472;18.048;2023-10-08T12:04:11;9.70;99.90
10282;DHT22;5186;59.472;18.048;2023-10-08T12:06:42;9.70;99.90
10282;DHT22;5186;59.472;18.048;2023-10-08T12:09:17;9.80;99.90
10282;DHT22;5186;59.472;18.048;2023-10-08T12:11:44;9.70;99.90
10282;DHT22;5186;59.472;18.048;2023-10-08T12:14:10;9.70;99.90
10282;DHT22;5186;59.472;18.048;2023-10-08T12:16:36;9.70;99.90
10282;DHT22;5186;59.472;18.048;2023-10-08T12:19:02;9.80;99.90
10282;DHT22;5186;59.472;18.048;2023-10-08T12:21:40;9.80;99.90
10282;DHT22;5186;59.472;18.048;2023-10-08T12:24:06;9.80;99.90
10282;DHT22;5186;59.472;18.048;2023-10-08T12:26:35;9.90;99.90
10282;DHT22;5186;59.472;18.048;2023-10-08T12:29:01;9.90;99.90
10282;DHT22;5186;59.472;18.048;2023-10-08T12:31:27;9.90;99.90
10282;DHT22;5186;59.472;18.048;2023-10-08T12:33:54;9.90;99.90
10282;DHT22;5186;59.472;18.048;2023-10-08T12:36:25;9.90;99.90
10282;DHT22;5186;59.472;18.048;2023-10-08T12:38:52;10.00;99.90
10282;DHT22;5186;59.472;18.048;2023-10-08T12:41:27;10.00;99.90
10282;DHT22;5186;59.472;18.048;2023-10-08T12:43:53;10.00;99.90
10282;DHT22;5186;59.472;18.048;2023-10-08T12:46:20;10.00;99.90
10282;DHT22;5186;59.472;18.048;2023-10-08T12:48:52;10.00;99.90
10282;DHT22;5186;59.472;18.048;2023-10-08T12:51:22;10.00;99.90
10282;DHT22;5186;59.472;18.048;2023-10-08T12:53:51;10.00;99.90
10282;DHT22;5186;59.472;18.048;2023-10-08T12:56:25;10.00;99.90
10282;DHT22;5186;59.472;18.048;2023-10-08T12:58:57;10.00;99.90
10282;DHT22;5186;59.472;18.048;2023-10-08T13:01:23;10.00;99.90
10282;DHT22;5186;59.472;18.048;2023-10-08T13:03:48;10.00;99.90
10282;DHT22;5186;59.472;18.048;2023-10-08T13:06:19;10.10;99.90
10282;DHT22;5186;59.472;18.048;2023-10-08T13:08:51;10.00;99.90
10282;DHT22;5186;59.472;18.048;2023-10-08T13:11:21;10.10;99.90
10282;DHT22;5186;59.472;18.048;2023-10-08T13:13:51;10.10;99.90
10282;DHT22;5186;59.472;18.048;2023-10-08T13:16:19;10.10;99.90
10282;DHT22;5186;59.472;18.048;2023-10-08T13:18:49;10.10;99.90
10282;DHT22;5186;59.472;18.048;2023-10-08T13:21:15;10.10;99.90
10282;DHT22;5186;59.472;18.048;2023-10-08T13:23:41;10.10;99.90
10282;DHT22;5186;59.472;18.048;2023-10-08T13:26:07;10.20;99.90
10282;DHT22;5186;59.472;18.048;2023-10-08T13:28:34;10.20;99.90
10282;DHT22;5186;59.472;18.048;2023-10-08T13:31:03;10.20;99.90
10282;DHT22;5186;59.472;18.048;2023-10-08T13:33:39;10.20;99.90
10282;DHT22;5186;59.472;18.048;2023-10-08T13:36:06;10.20;99.90
10282;DHT22;5186;59.472;18.048;2023-10-08T13:38:36;10.20;99.90
10282;DHT22;5186;59.472;18.048;2023-10-08T13:41:03;10.20;99.90
10282;DHT22;5186;59.472;18.048;2023-10-08T13:43:33;10.10;99.90
10282;DHT22;5186;59.472;18.048;2023-10-08T13:46:06;10.20;99.90
10282;DHT22;5186;59.472;18.048;2023-10-08T13:48:34;10.20;99.90
10282;DHT22;5186;59.472;18.048;2023-10-08T13:51:03;10.20;99.90
10282;DHT22;5186;59.472;18.048;2023-10-08T13:53:33;10.20;99.90
10282;DHT22;5186;59.472;18.048;2023-10-08T13:56:03;10.20;99.90
10282;DHT22;5186;59.472;18.048;2023-10-08T13:58:30;10.20;99.90
10282;DHT22;5186;59.472;18.048;2023-10-08T14:00:57;10.20;99.90
10282;DHT22;5186;59.472;18.048;2023-10-08T14:03:25;10.20;99.90
10282;DHT22;5186;59.472;18.048;2023-10-08T14:05:51;10.20;99.90
10282;DHT22;5186;59.472;18.048;2023-10-08T14:08:19;10.20;99.90
10282;DHT22;5186;59.472;18.048;2023-10-08T14:10:45;10.20;99.90
10282;DHT22;5186;59.472;18.048;2023-10-08T14:13:14;10.20;99.90
10282;DHT22;5186;59.472;18.048;2023-10-08T14:15:45;10.20;99.90
10282;DHT22;5186;59.472;18.048;2023-10-08T14:18:14;10.20;99.90
10282;DHT22;5186;59.472;18.048;2023-10-08T14:20:44;10.20;99.90
10282;DHT22;5186;59.472;18.048;2023-10-08T14:23:12;10.20;99.90
10282;DHT22;5186;59.472;18.048;2023-10-08T14:25:38;10.20;99.90
10282;DHT22;5186;59.472;18.048;2023-10-08T14:28:10;10.20;99.90
10282;DHT22;5186;59.472;18.048;2023-10-08T14:30:50;10.20;99.90
10282;DHT22;5186;59.472;18.048;2023-10-08T14:33:21;10.20;99.90
10282;DHT22;5186;59.472;18.048;2023-10-08T14:35:52;10.20;99.90
10282;DHT22;5186;59.472;18.048;2023-10-08T14:38:36;10.20;99.90
10282;DHT22;5186;59.472;18.048;2023-10-08T14:41:20;10.20;99.90
10282;DHT22;5186;59.472;18.048;2023-10-08T14:44:05;10.20;99.90
10282;DHT22;5186;59.472;18.048;2023-10-08T14:46:32;10.20;99.90
10282;DHT22;5186;59.472;18.048;2023-10-08T14:48:59;10.20;99.90
10282;DHT22;5186;59.472;18.048;2023-10-08T14:51:27;10.20;99.90
10282;DHT22;5186;59.472;18.048;2023-10-08T14:53:55;10.20;99.90
10282;DHT22;5186;59.472;18.048;2023-10-08T14:56:21;10.20;99.90
10282;DHT22;5186;59.472;18.048;2023-10-08T14:58:47;10.10;99.90
10282;DHT22;5186;59.472;18.048;2023-10-08T15:01:13;10.10;99.90
10282;DHT22;5186;59.472;18.048;2023-10-08T15:03:40;10.10;99.90
10282;DHT22;5186;59.472;18.048;2023-10-08T15:06:05;10.00;99.90
10282;DHT22;5186;59.472;18.048;2023-10-08T15:08:33;10.00;99.90
10282;DHT22;5186;59.472;18.048;2023-10-08T15:10:58;10.00;99.90
10282;DHT22;5186;59.472;18.048;2023-10-08T15:13:25;10.00;99.90
10282;DHT22;5186;59.472;18.048;2023-10-08T15:15:52;10.00;99.90
10282;DHT22;5186;59.472;18.048;2023-10-08T15:18:17;10.00;99.90
10282;DHT22;5186;59.472;18.048;2023-10-08T15:20:44;9.90;99.90
10282;DHT22;5186;59.472;18.048;2023-10-08T15:23:10;9.90;99.90
10282;DHT22;5186;59.472;18.048;2023-10-08T15:25:37;9.90;99.90
10282;DHT22;5186;59.472;18.048;2023-10-08T15:28:03;9.90;99.90
10282;DHT22;5186;59.472;18.048;2023-10-08T15:30:29;9.80;99.90
10282;DHT22;5186;59.472;18.048;2023-10-08T15:32:54;9.80;99.90
10282;DHT22;5186;59.472;18.048;2023-10-08T15:35:20;9.70;99.90
10282;DHT22;5186;59.472;18.048;2023-10-08T15:37:49;9.70;99.90
10282;DHT22;5186;59.472;18.048;2023-10-08T15:40:15;9.70;99.90
10282;DHT22;5186;59.472;18.048;2023-10-08T15:42:49;9.60;99.90
10282;DHT22;5186;59.472;18.048;2023-10-08T15:45:17;9.50;99.90
10282;DHT22;5186;59.472;18.048;2023-10-08T15:47:42;9.50;99.90
10282;DHT22;5186;59.472;18.048;2023-10-08T15:50:08;9.40;99.90
10282;DHT22;5186;59.472;18.048;2023-10-08T15:52:36;9.40;99.90
10282;DHT22;5186;59.472;18.048;2023-10-08T15:55:02;9.30;99.90
10282;DHT22;5186;59.472;18.048;2023-10-08T15:57:29;9.20;99.90
10282;DHT22;5186;59.472;18.048;2023-10-08T15:59:54;9.10;99.90
10282;DHT22;5186;59.472;18.048;2023-10-08T16:02:20;9.10;99.90
10282;DHT22;5186;59.472;18.048;2023-10-08T16:04:45;9.00;99.90
10282;DHT22;5186;59.472;18.048;2023-10-08T16:07:11;8.80;99.90
10282;DHT22;5186;59.472;18.048;2023-10-08T16:09:37;8.60;99.90